Terminal Aerodrome Forecast
Issued by NWS

Home | Current Version | Previous Version | Text Only | Print | Product List | Glossary On
Versions: 1 2 3 4 5 6 7 8 9 10 11 12 13 14 15 16 17 18 19 20 21 22 23 24 25 26 27
525
FTUS44 KLZK 291503 AAB
TAFBPK
TAF AMD
KBPK 291503Z 2915/3012 21009G15KT P6SM BKN023 BKN029 OVC045
     FM291600 09008G18KT P6SM -SHRA VCTS SCT008 BKN015CB OVC050
      TEMPO 2918/2922 VRB15G35KT 2SM +TSRA BR SCT005 OVC025CB=

USA.gov is the U.S. government's official web portal to all federal, state and local government web resources and services.